Terminal Aerodrome Forecast
Issued by NWS

Home | Current Version | Previous Version | Text Only | Print | Product List | Glossary Off
Versions: 1 2 3 4 5 6 7 8 9 10 11 12

000
FTUS43 KICT 241729
TAFSLN
TAF
KSLN 241729Z 2418/2518 31023G31KT P6SM SKC
     FM242300 32007KT P6SM FEW250
     FM251400 24006KT P6SM SCT250=

USA.gov is the U.S. government's official web portal to all federal, state and local government web resources and services.